CCO weather

Newnan Coweta County Airport
Atlanta, Georgia, United States

Public forecast

Using degrees Fahrenheit for public forecast. Weather courtesy of forecast.io.

METAR (pilot weather report)

Retrieved 2019/04/26 03:35 UTC (55 seconds ago):

KCCO 260335Z AUTO 21004KT 10SM BKN110 20/13 A2983 RMK AO2 T01980132

TAF (pilot weather forecast)

Forecast is more than 12 hours old.

Closest forecast is Hartsfield Jackson Atlanta International Airport, 26.0 nm (48.1 km) NE. Retrieved 2019/04/25 00:48 UTC (1 day ago):

TAF KATL 252345Z 2600/2706 20009G16KT P6SM VCSH FEW045 BKN060 TEMPO 2600/2601 5SM -SHRA BKN025 FM260100 19008KT 4SM -SHRA BKN050 FM260600 21011KT 6SM -SHRA BKN020 FM260900 23011KT P6SM -RA BKN012 FM261100 24011G18KT P6SM BKN008 FM261400 31019G29KT P6SM SCT025 FM261900 32025G33KT P6SM SCT200